sensor_id;sensor_type;location;lat;lon;timestamp;temperature;humidity
33271;DHT22;53180;51.344;6.152;2023-01-19T00:02:19;1.70;87.60
33271;DHT22;53180;51.344;6.152;2023-01-19T00:05:08;1.70;87.80
33271;DHT22;53180;51.344;6.152;2023-01-19T00:07:57;1.70;87.80
33271;DHT22;53180;51.344;6.152;2023-01-19T00:11:01;1.70;87.90
33271;DHT22;53180;51.344;6.152;2023-01-19T00:13:50;1.70;87.90
33271;DHT22;53180;51.344;6.152;2023-01-19T00:16:41;1.70;88.00
33271;DHT22;53180;51.344;6.152;2023-01-19T00:19:29;1.80;88.00
33271;DHT22;53180;51.344;6.152;2023-01-19T00:22:18;1.80;87.90
33271;DHT22;53180;51.344;6.152;2023-01-19T00:25:08;1.80;87.90
33271;DHT22;53180;51.344;6.152;2023-01-19T00:27:57;1.80;87.90
33271;DHT22;53180;51.344;6.152;2023-01-19T00:30:49;1.80;88.00
33271;DHT22;53180;51.344;6.152;2023-01-19T00:33:39;1.80;88.00
33271;DHT22;53180;51.344;6.152;2023-01-19T00:36:28;1.90;88.00
33271;DHT22;53180;51.344;6.152;2023-01-19T00:39:17;1.90;87.90
33271;DHT22;53180;51.344;6.152;2023-01-19T00:42:07;1.90;88.00
33271;DHT22;53180;51.344;6.152;2023-01-19T00:45:14;1.90;87.90
33271;DHT22;53180;51.344;6.152;2023-01-19T00:48:05;1.90;87.90
33271;DHT22;53180;51.344;6.152;2023-01-19T00:50:55;1.90;87.90
33271;DHT22;53180;51.344;6.152;2023-01-19T00:53:44;1.90;88.00
33271;DHT22;53180;51.344;6.152;2023-01-19T00:56:32;1.90;88.00
33271;DHT22;53180;51.344;6.152;2023-01-19T00:59:22;1.90;87.90
33271;DHT22;53180;51.344;6.152;2023-01-19T01:02:12;1.90;87.90
33271;DHT22;53180;51.344;6.152;2023-01-19T01:05:00;1.90;87.90
33271;DHT22;53180;51.344;6.152;2023-01-19T01:07:51;1.90;87.90
33271;DHT22;53180;51.344;6.152;2023-01-19T01:10:39;1.90;87.80
33271;DHT22;53180;51.344;6.152;2023-01-19T01:13:28;1.90;87.90
33271;DHT22;53180;51.344;6.152;2023-01-19T01:16:17;1.90;87.90
33271;DHT22;53180;51.344;6.152;2023-01-19T01:19:06;1.90;87.80
33271;DHT22;53180;51.344;6.152;2023-01-19T01:21:55;2.00;87.90
33271;DHT22;53180;51.344;6.152;2023-01-19T01:24:45;2.00;87.90
33271;DHT22;53180;51.344;6.152;2023-01-19T01:27:34;2.00;87.80
33271;DHT22;53180;51.344;6.152;2023-01-19T01:30:23;1.90;87.80
33271;DHT22;53180;51.344;6.152;2023-01-19T01:33:11;2.00;87.80
33271;DHT22;53180;51.344;6.152;2023-01-19T01:36:00;1.90;87.80
33271;DHT22;53180;51.344;6.152;2023-01-19T01:38:49;1.90;87.80
33271;DHT22;53180;51.344;6.152;2023-01-19T01:41:39;2.00;87.80
33271;DHT22;53180;51.344;6.152;2023-01-19T01:44:45;2.00;87.70
33271;DHT22;53180;51.344;6.152;2023-01-19T01:47:46;1.90;87.70
33271;DHT22;53180;51.344;6.152;2023-01-19T01:50:36;1.90;87.60
33271;DHT22;53180;51.344;6.152;2023-01-19T01:53:50;1.90;87.50
33271;DHT22;53180;51.344;6.152;2023-01-19T01:56:45;1.90;87.50
33271;DHT22;53180;51.344;6.152;2023-01-19T01:59:38;1.90;87.50
33271;DHT22;53180;51.344;6.152;2023-01-19T02:02:29;1.90;87.60
33271;DHT22;53180;51.344;6.152;2023-01-19T02:05:36;1.90;87.50
33271;DHT22;53180;51.344;6.152;2023-01-19T02:08:29;1.80;87.50
33271;DHT22;53180;51.344;6.152;2023-01-19T02:11:40;1.90;87.50
33271;DHT22;53180;51.344;6.152;2023-01-19T02:14:48;1.80;87.40
33271;DHT22;53180;51.344;6.152;2023-01-19T02:17:36;1.80;87.40
33271;DHT22;53180;51.344;6.152;2023-01-19T02:20:27;1.80;87.50
33271;DHT22;53180;51.344;6.152;2023-01-19T02:23:26;1.70;87.50
33271;DHT22;53180;51.344;6.152;2023-01-19T02:26:23;1.80;87.60
33271;DHT22;53180;51.344;6.152;2023-01-19T02:29:15;1.70;87.60
33271;DHT22;53180;51.344;6.152;2023-01-19T02:32:06;1.70;87.70
33271;DHT22;53180;51.344;6.152;2023-01-19T02:34:55;1.70;87.70
33271;DHT22;53180;51.344;6.152;2023-01-19T02:37:44;1.80;87.90
33271;DHT22;53180;51.344;6.152;2023-01-19T02:40:35;1.80;87.90
33271;DHT22;53180;51.344;6.152;2023-01-19T02:43:26;1.80;87.90
33271;DHT22;53180;51.344;6.152;2023-01-19T02:46:15;1.80;87.90
33271;DHT22;53180;51.344;6.152;2023-01-19T02:49:04;1.90;87.80
33271;DHT22;53180;51.344;6.152;2023-01-19T02:51:53;1.80;87.80
33271;DHT22;53180;51.344;6.152;2023-01-19T02:54:55;1.90;87.70
33271;DHT22;53180;51.344;6.152;2023-01-19T02:57:56;1.90;87.70
33271;DHT22;53180;51.344;6.152;2023-01-19T03:00:52;2.00;87.60
33271;DHT22;53180;51.344;6.152;2023-01-19T03:03:54;2.00;87.60
33271;DHT22;53180;51.344;6.152;2023-01-19T03:06:48;2.00;87.60
33271;DHT22;53180;51.344;6.152;2023-01-19T03:09:43;2.10;87.40
33271;DHT22;53180;51.344;6.152;2023-01-19T03:12:41;2.00;87.70
33271;DHT22;53180;51.344;6.152;2023-01-19T03:15:38;1.90;88.00
33271;DHT22;53180;51.344;6.152;2023-01-19T03:18:33;1.90;88.50
33271;DHT22;53180;51.344;6.152;2023-01-19T03:21:25;1.80;88.80
33271;DHT22;53180;51.344;6.152;2023-01-19T03:24:16;1.80;89.10
33271;DHT22;53180;51.344;6.152;2023-01-19T03:27:07;1.80;89.20
33271;DHT22;53180;51.344;6.152;2023-01-19T03:30:00;1.80;89.50
33271;DHT22;53180;51.344;6.152;2023-01-19T03:32:55;1.80;89.80
33271;DHT22;53180;51.344;6.152;2023-01-19T03:35:49;1.80;89.80
33271;DHT22;53180;51.344;6.152;2023-01-19T03:38:42;1.80;89.90
33271;DHT22;53180;51.344;6.152;2023-01-19T03:41:33;1.80;90.00
33271;DHT22;53180;51.344;6.152;2023-01-19T03:44:25;1.80;89.90
33271;DHT22;53180;51.344;6.152;2023-01-19T03:47:16;1.70;90.00
33271;DHT22;53180;51.344;6.152;2023-01-19T03:50:12;1.60;89.90
33271;DHT22;53180;51.344;6.152;2023-01-19T03:53:06;1.50;90.10
33271;DHT22;53180;51.344;6.152;2023-01-19T03:55:55;1.40;90.40
33271;DHT22;53180;51.344;6.152;2023-01-19T03:58:44;1.30;90.70
33271;DHT22;53180;51.344;6.152;2023-01-19T04:01:33;1.20;90.80
33271;DHT22;53180;51.344;6.152;2023-01-19T04:04:22;1.20;91.00
33271;DHT22;53180;51.344;6.152;2023-01-19T04:07:13;1.10;91.10
33271;DHT22;53180;51.344;6.152;2023-01-19T04:10:01;1.10;91.30
33271;DHT22;53180;51.344;6.152;2023-01-19T04:12:56;1.00;91.50
33271;DHT22;53180;51.344;6.152;2023-01-19T04:15:46;1.00;91.60
33271;DHT22;53180;51.344;6.152;2023-01-19T04:18:34;0.90;91.80
33271;DHT22;53180;51.344;6.152;2023-01-19T04:21:23;1.00;91.90
33271;DHT22;53180;51.344;6.152;2023-01-19T04:24:14;1.00;92.10
33271;DHT22;53180;51.344;6.152;2023-01-19T04:27:02;0.90;92.20
33271;DHT22;53180;51.344;6.152;2023-01-19T04:29:51;1.00;92.30
33271;DHT22;53180;51.344;6.152;2023-01-19T04:32:40;0.90;92.40
33271;DHT22;53180;51.344;6.152;2023-01-19T04:35:29;0.90;92.40
33271;DHT22;53180;51.344;6.152;2023-01-19T04:38:17;0.90;92.50
33271;DHT22;53180;51.344;6.152;2023-01-19T04:41:08;0.90;92.60
33271;DHT22;53180;51.344;6.152;2023-01-19T04:43:57;0.90;92.70
33271;DHT22;53180;51.344;6.152;2023-01-19T04:46:46;0.80;92.70
33271;DHT22;53180;51.344;6.152;2023-01-19T04:49:35;0.80;92.80
33271;DHT22;53180;51.344;6.152;2023-01-19T04:52:25;0.80;92.90
33271;DHT22;53180;51.344;6.152;2023-01-19T04:55:21;0.80;92.90
33271;DHT22;53180;51.344;6.152;2023-01-19T04:58:11;0.70;93.00
33271;DHT22;53180;51.344;6.152;2023-01-19T05:01:00;0.70;93.30
33271;DHT22;53180;51.344;6.152;2023-01-19T05:03:49;0.70;93.50
33271;DHT22;53180;51.344;6.152;2023-01-19T05:06:41;0.70;93.60
33271;DHT22;53180;51.344;6.152;2023-01-19T05:09:29;0.70;93.70
33271;DHT22;53180;51.344;6.152;2023-01-19T05:12:20;0.70;93.80
33271;DHT22;53180;51.344;6.152;2023-01-19T05:15:11;0.70;93.80
33271;DHT22;53180;51.344;6.152;2023-01-19T05:18:00;0.70;93.90
33271;DHT22;53180;51.344;6.152;2023-01-19T05:20:56;0.70;94.00
33271;DHT22;53180;51.344;6.152;2023-01-19T05:23:44;0.70;94.00
33271;DHT22;53180;51.344;6.152;2023-01-19T05:26:33;0.70;94.10
33271;DHT22;53180;51.344;6.152;2023-01-19T05:29:22;0.70;94.20
33271;DHT22;53180;51.344;6.152;2023-01-19T05:32:12;0.70;94.30
33271;DHT22;53180;51.344;6.152;2023-01-19T05:35:00;0.70;94.30
33271;DHT22;53180;51.344;6.152;2023-01-19T05:37:49;0.60;94.30
33271;DHT22;53180;51.344;6.152;2023-01-19T05:40:38;0.70;94.40
33271;DHT22;53180;51.344;6.152;2023-01-19T05:43:27;0.60;94.40
33271;DHT22;53180;51.344;6.152;2023-01-19T05:46:16;0.60;94.50
33271;DHT22;53180;51.344;6.152;2023-01-19T05:49:06;0.60;94.50
33271;DHT22;53180;51.344;6.152;2023-01-19T05:51:55;0.70;94.60
33271;DHT22;53180;51.344;6.152;2023-01-19T05:54:43;0.60;94.60
33271;DHT22;53180;51.344;6.152;2023-01-19T05:57:33;0.60;94.60
33271;DHT22;53180;51.344;6.152;2023-01-19T06:00:22;0.60;94.70
33271;DHT22;53180;51.344;6.152;2023-01-19T06:03:11;0.60;94.70
33271;DHT22;53180;51.344;6.152;2023-01-19T06:06:02;0.70;94.80
33271;DHT22;53180;51.344;6.152;2023-01-19T06:08:51;0.70;94.80
33271;DHT22;53180;51.344;6.152;2023-01-19T06:11:40;0.70;94.80
33271;DHT22;53180;51.344;6.152;2023-01-19T06:14:28;0.70;94.90
33271;DHT22;53180;51.344;6.152;2023-01-19T06:17:18;0.70;94.90
33271;DHT22;53180;51.344;6.152;2023-01-19T06:20:08;0.70;94.90
33271;DHT22;53180;51.344;6.152;2023-01-19T06:23:01;0.80;95.00
33271;DHT22;53180;51.344;6.152;2023-01-19T06:25:50;0.80;95.00
33271;DHT22;53180;51.344;6.152;2023-01-19T06:28:39;0.80;95.00
33271;DHT22;53180;51.344;6.152;2023-01-19T06:31:27;0.80;95.00
33271;DHT22;53180;51.344;6.152;2023-01-19T06:34:16;0.80;95.10
33271;DHT22;53180;51.344;6.152;2023-01-19T06:37:05;0.80;95.10
33271;DHT22;53180;51.344;6.152;2023-01-19T06:39:55;0.80;95.10
33271;DHT22;53180;51.344;6.152;2023-01-19T06:42:44;0.90;95.20
33271;DHT22;53180;51.344;6.152;2023-01-19T06:45:33;0.80;95.20
33271;DHT22;53180;51.344;6.152;2023-01-19T06:48:25;0.90;95.20
33271;DHT22;53180;51.344;6.152;2023-01-19T06:51:14;0.80;95.20
33271;DHT22;53180;51.344;6.152;2023-01-19T06:54:03;0.90;95.20
33271;DHT22;53180;51.344;6.152;2023-01-19T06:56:53;0.90;95.20
33271;DHT22;53180;51.344;6.152;2023-01-19T06:59:42;0.90;95.20
33271;DHT22;53180;51.344;6.152;2023-01-19T07:02:31;0.90;95.30
33271;DHT22;53180;51.344;6.152;2023-01-19T07:05:20;0.90;95.20
33271;DHT22;53180;51.344;6.152;2023-01-19T07:08:09;0.90;95.30
33271;DHT22;53180;51.344;6.152;2023-01-19T07:10:59;0.90;95.30
33271;DHT22;53180;51.344;6.152;2023-01-19T07:14:09;0.90;95.30
33271;DHT22;53180;51.344;6.152;2023-01-19T07:17:04;0.90;95.30
33271;DHT22;53180;51.344;6.152;2023-01-19T07:19:53;0.90;95.30
33271;DHT22;53180;51.344;6.152;2023-01-19T07:22:42;0.90;95.30
33271;DHT22;53180;51.344;6.152;2023-01-19T07:25:32;0.90;95.40
33271;DHT22;53180;51.344;6.152;2023-01-19T07:28:21;0.90;95.40
33271;DHT22;53180;51.344;6.152;2023-01-19T07:31:11;0.90;95.40
33271;DHT22;53180;51.344;6.152;2023-01-19T07:34:06;0.90;95.40
33271;DHT22;53180;51.344;6.152;2023-01-19T07:36:58;1.00;95.40
33271;DHT22;53180;51.344;6.152;2023-01-19T07:39:47;1.00;95.40
33271;DHT22;53180;51.344;6.152;2023-01-19T07:42:36;1.00;95.40
33271;DHT22;53180;51.344;6.152;2023-01-19T07:45:25;0.90;95.40
33271;DHT22;53180;51.344;6.152;2023-01-19T07:48:15;1.00;95.50
33271;DHT22;53180;51.344;6.152;2023-01-19T07:51:05;1.00;95.50
33271;DHT22;53180;51.344;6.152;2023-01-19T07:53:59;1.00;95.50
33271;DHT22;53180;51.344;6.152;2023-01-19T07:56:47;1.00;95.50
33271;DHT22;53180;51.344;6.152;2023-01-19T07:59:36;1.00;95.50
33271;DHT22;53180;51.344;6.152;2023-01-19T08:02:26;1.00;95.50
33271;DHT22;53180;51.344;6.152;2023-01-19T08:05:18;1.00;95.50
33271;DHT22;53180;51.344;6.152;2023-01-19T08:08:07;1.00;95.50
33271;DHT22;53180;51.344;6.152;2023-01-19T08:10:57;1.00;95.50
33271;DHT22;53180;51.344;6.152;2023-01-19T08:13:47;1.00;95.50
33271;DHT22;53180;51.344;6.152;2023-01-19T08:16:35;1.00;95.50
33271;DHT22;53180;51.344;6.152;2023-01-19T08:19:25;1.00;95.50
33271;DHT22;53180;51.344;6.152;2023-01-19T08:22:15;1.00;95.50
33271;DHT22;53180;51.344;6.152;2023-01-19T08:25:05;1.00;95.60
33271;DHT22;53180;51.344;6.152;2023-01-19T08:27:57;1.00;95.60
33271;DHT22;53180;51.344;6.152;2023-01-19T08:30:45;1.10;95.60
33271;DHT22;53180;51.344;6.152;2023-01-19T08:33:41;1.10;95.60
33271;DHT22;53180;51.344;6.152;2023-01-19T08:36:30;1.10;95.60
33271;DHT22;53180;51.344;6.152;2023-01-19T08:39:21;1.10;95.60
33271;DHT22;53180;51.344;6.152;2023-01-19T08:42:10;1.10;95.60
33271;DHT22;53180;51.344;6.152;2023-01-19T08:44:58;1.10;95.60
33271;DHT22;53180;51.344;6.152;2023-01-19T08:47:47;1.20;95.60
33271;DHT22;53180;51.344;6.152;2023-01-19T08:50:36;1.20;95.70
33271;DHT22;53180;51.344;6.152;2023-01-19T08:53:25;1.10;95.60
33271;DHT22;53180;51.344;6.152;2023-01-19T08:56:15;1.20;95.70
33271;DHT22;53180;51.344;6.152;2023-01-19T08:59:06;1.20;95.70
33271;DHT22;53180;51.344;6.152;2023-01-19T09:01:59;1.20;95.70
33271;DHT22;53180;51.344;6.152;2023-01-19T09:04:48;1.20;95.70
33271;DHT22;53180;51.344;6.152;2023-01-19T09:07:37;1.20;95.70
33271;DHT22;53180;51.344;6.152;2023-01-19T09:10:26;1.20;95.70
33271;DHT22;53180;51.344;6.152;2023-01-19T09:13:19;1.20;95.70
33271;DHT22;53180;51.344;6.152;2023-01-19T09:16:08;1.20;95.70
33271;DHT22;53180;51.344;6.152;2023-01-19T09:18:59;1.20;95.70
33271;DHT22;53180;51.344;6.152;2023-01-19T09:21:48;1.30;95.70
33271;DHT22;53180;51.344;6.152;2023-01-19T09:24:37;1.20;95.70
33271;DHT22;53180;51.344;6.152;2023-01-19T09:27:26;1.30;95.70
33271;DHT22;53180;51.344;6.152;2023-01-19T09:30:17;1.30;95.70
33271;DHT22;53180;51.344;6.152;2023-01-19T09:33:08;1.20;95.70
33271;DHT22;53180;51.344;6.152;2023-01-19T09:35:57;1.20;95.70
33271;DHT22;53180;51.344;6.152;2023-01-19T09:38:46;1.30;95.70
33271;DHT22;53180;51.344;6.152;2023-01-19T09:41:35;1.20;95.70
33271;DHT22;53180;51.344;6.152;2023-01-19T09:44:28;1.30;95.70
33271;DHT22;53180;51.344;6.152;2023-01-19T09:47:24;1.30;95.70
33271;DHT22;53180;51.344;6.152;2023-01-19T09:50:19;1.30;95.70
33271;DHT22;53180;51.344;6.152;2023-01-19T09:53:14;1.30;95.70
33271;DHT22;53180;51.344;6.152;2023-01-19T09:56:10;1.40;95.80
33271;DHT22;53180;51.344;6.152;2023-01-19T09:59:02;1.40;95.80
33271;DHT22;53180;51.344;6.152;2023-01-19T10:02:24;1.40;95.80
33271;DHT22;53180;51.344;6.152;2023-01-19T10:05:24;1.40;95.70
33271;DHT22;53180;51.344;6.152;2023-01-19T10:08:21;1.40;95.80
33271;DHT22;53180;51.344;6.152;2023-01-19T10:11:23;1.40;95.70
33271;DHT22;53180;51.344;6.152;2023-01-19T10:14:37;1.40;95.80
33271;DHT22;53180;51.344;6.152;2023-01-19T10:17:40;1.40;95.70
33271;DHT22;53180;51.344;6.152;2023-01-19T10:20:37;1.40;95.80
33271;DHT22;53180;51.344;6.152;2023-01-19T10:23:37;1.50;95.80
33271;DHT22;53180;51.344;6.152;2023-01-19T10:26:31;1.50;95.80
33271;DHT22;53180;51.344;6.152;2023-01-19T10:29:27;1.40;95.80
33271;DHT22;53180;51.344;6.152;2023-01-19T10:32:22;1.50;95.80
33271;DHT22;53180;51.344;6.152;2023-01-19T10:35:15;1.50;95.80
33271;DHT22;53180;51.344;6.152;2023-01-19T10:38:12;1.50;95.80
33271;DHT22;53180;51.344;6.152;2023-01-19T10:41:05;1.50;95.80
33271;DHT22;53180;51.344;6.152;2023-01-19T10:44:00;1.60;95.80
33271;DHT22;53180;51.344;6.152;2023-01-19T10:46:50;1.60;95.80
33271;DHT22;53180;51.344;6.152;2023-01-19T10:49:41;1.60;95.80
33271;DHT22;53180;51.344;6.152;2023-01-19T10:52:33;1.60;95.80
33271;DHT22;53180;51.344;6.152;2023-01-19T10:55:27;1.70;95.90
33271;DHT22;53180;51.344;6.152;2023-01-19T10:58:27;1.70;95.80
33271;DHT22;53180;51.344;6.152;2023-01-19T11:01:19;1.70;95.80
33271;DHT22;53180;51.344;6.152;2023-01-19T11:04:21;1.70;95.80
33271;DHT22;53180;51.344;6.152;2023-01-19T11:07:18;1.80;95.90
33271;DHT22;53180;51.344;6.152;2023-01-19T11:10:20;1.80;95.90
33271;DHT22;53180;51.344;6.152;2023-01-19T11:13:12;1.80;95.80
33271;DHT22;53180;51.344;6.152;2023-01-19T11:16:04;1.80;95.80
33271;DHT22;53180;51.344;6.152;2023-01-19T11:18:57;1.80;95.80
33271;DHT22;53180;51.344;6.152;2023-01-19T11:21:48;1.90;95.90
33271;DHT22;53180;51.344;6.152;2023-01-19T11:24:37;1.90;95.90
33271;DHT22;53180;51.344;6.152;2023-01-19T11:27:29;2.00;95.80
33271;DHT22;53180;51.344;6.152;2023-01-19T11:30:21;2.00;95.80
33271;DHT22;53180;51.344;6.152;2023-01-19T11:33:23;2.00;95.80
33271;DHT22;53180;51.344;6.152;2023-01-19T11:36:16;2.10;95.80
33271;DHT22;53180;51.344;6.152;2023-01-19T11:39:20;2.20;95.80
33271;DHT22;53180;51.344;6.152;2023-01-19T11:42:11;2.40;95.80
33271;DHT22;53180;51.344;6.152;2023-01-19T11:45:06;2.50;95.80
33271;DHT22;53180;51.344;6.152;2023-01-19T11:48:03;2.70;95.80
33271;DHT22;53180;51.344;6.152;2023-01-19T11:50:53;2.90;95.80
33271;DHT22;53180;51.344;6.152;2023-01-19T11:53:47;3.00;95.80
33271;DHT22;53180;51.344;6.152;2023-01-19T11:56:39;3.10;95.80
33271;DHT22;53180;51.344;6.152;2023-01-19T11:59:28;3.20;95.70
33271;DHT22;53180;51.344;6.152;2023-01-19T12:02:24;3.10;95.60
33271;DHT22;53180;51.344;6.152;2023-01-19T12:05:17;3.10;95.50
33271;DHT22;53180;51.344;6.152;2023-01-19T12:08:12;3.20;95.50
33271;DHT22;53180;51.344;6.152;2023-01-19T12:11:05;3.10;95.40
33271;DHT22;53180;51.344;6.152;2023-01-19T12:13:56;3.20;95.30
33271;DHT22;53180;51.344;6.152;2023-01-19T12:16:45;3.20;95.20
33271;DHT22;53180;51.344;6.152;2023-01-19T12:19:42;3.20;95.20
33271;DHT22;53180;51.344;6.152;2023-01-19T12:22:38;3.20;95.20
33271;DHT22;53180;51.344;6.152;2023-01-19T12:25:44;3.20;95.10
33271;DHT22;53180;51.344;6.152;2023-01-19T12:28:43;3.10;94.90
33271;DHT22;53180;51.344;6.152;2023-01-19T12:31:33;3.10;94.80
33271;DHT22;53180;51.344;6.152;2023-01-19T12:34:28;3.00;94.80
33271;DHT22;53180;51.344;6.152;2023-01-19T12:37:37;3.00;94.70
33271;DHT22;53180;51.344;6.152;2023-01-19T12:40:28;3.00;94.70
33271;DHT22;53180;51.344;6.152;2023-01-19T12:43:21;2.90;94.70
33271;DHT22;53180;51.344;6.152;2023-01-19T12:46:18;2.90;94.60
33271;DHT22;53180;51.344;6.152;2023-01-19T12:49:10;2.90;94.50
33271;DHT22;53180;51.344;6.152;2023-01-19T12:52:29;2.80;94.50
33271;DHT22;53180;51.344;6.152;2023-01-19T12:55:23;2.80;94.50
33271;DHT22;53180;51.344;6.152;2023-01-19T12:58:15;2.90;94.50
33271;DHT22;53180;51.344;6.152;2023-01-19T13:01:13;2.90;94.60
33271;DHT22;53180;51.344;6.152;2023-01-19T13:04:04;2.90;94.50
33271;DHT22;53180;51.344;6.152;2023-01-19T13:07:08;2.90;94.60
33271;DHT22;53180;51.344;6.152;2023-01-19T13:17:32;3.00;94.60
33271;DHT22;53180;51.344;6.152;2023-01-19T13:20:26;2.90;94.60
33271;DHT22;53180;51.344;6.152;2023-01-19T13:23:51;2.90;94.50
33271;DHT22;53180;51.344;6.152;2023-01-19T13:26:51;2.90;94.40
33271;DHT22;53180;51.344;6.152;2023-01-19T13:29:43;3.00;94.50
33271;DHT22;53180;51.344;6.152;2023-01-19T13:32:32;3.00;94.40
33271;DHT22;53180;51.344;6.152;2023-01-19T13:35:21;3.00;94.20
33271;DHT22;53180;51.344;6.152;2023-01-19T13:38:12;3.00;94.10
33271;DHT22;53180;51.344;6.152;2023-01-19T13:41:01;3.00;93.90
33271;DHT22;53180;51.344;6.152;2023-01-19T13:43:59;3.00;93.90
33271;DHT22;53180;51.344;6.152;2023-01-19T13:46:51;3.00;93.80
33271;DHT22;53180;51.344;6.152;2023-01-19T13:49:42;3.00;93.80
33271;DHT22;53180;51.344;6.152;2023-01-19T13:52:32;3.10;93.90
33271;DHT22;53180;51.344;6.152;2023-01-19T13:55:21;3.10;93.80
33271;DHT22;53180;51.344;6.152;2023-01-19T13:58:19;3.10;93.70
33271;DHT22;53180;51.344;6.152;2023-01-19T14:01:20;3.10;93.70
33271;DHT22;53180;51.344;6.152;2023-01-19T14:04:26;3.00;93.60
33271;DHT22;53180;51.344;6.152;2023-01-19T14:07:19;2.90;93.60
33271;DHT22;53180;51.344;6.152;2023-01-19T14:10:14;2.90;93.40
33271;DHT22;53180;51.344;6.152;2023-01-19T14:13:05;2.80;93.40
33271;DHT22;53180;51.344;6.152;2023-01-19T14:16:04;2.70;93.40
33271;DHT22;53180;51.344;6.152;2023-01-19T14:19:00;2.60;93.30
33271;DHT22;53180;51.344;6.152;2023-01-19T14:22:00;2.60;93.30
33271;DHT22;53180;51.344;6.152;2023-01-19T14:24:49;2.60;93.40
33271;DHT22;53180;51.344;6.152;2023-01-19T14:27:38;2.50;93.40
33271;DHT22;53180;51.344;6.152;2023-01-19T14:30:27;2.50;93.40
33271;DHT22;53180;51.344;6.152;2023-01-19T14:33:34;2.50;93.30
33271;DHT22;53180;51.344;6.152;2023-01-19T14:36:32;2.60;93.30
33271;DHT22;53180;51.344;6.152;2023-01-19T14:39:28;2.50;93.20
33271;DHT22;53180;51.344;6.152;2023-01-19T14:42:25;2.50;93.30
33271;DHT22;53180;51.344;6.152;2023-01-19T14:45:16;2.50;93.40
33271;DHT22;53180;51.344;6.152;2023-01-19T14:48:14;2.50;93.20
33271;DHT22;53180;51.344;6.152;2023-01-19T14:51:04;2.50;93.40
33271;DHT22;53180;51.344;6.152;2023-01-19T14:53:55;2.50;93.40
33271;DHT22;53180;51.344;6.152;2023-01-19T14:56:46;2.40;93.40
33271;DHT22;53180;51.344;6.152;2023-01-19T14:59:35;2.40;93.30
33271;DHT22;53180;51.344;6.152;2023-01-19T15:02:24;2.30;93.40
33271;DHT22;53180;51.344;6.152;2023-01-19T15:05:13;2.30;93.40
33271;DHT22;53180;51.344;6.152;2023-01-19T15:08:03;2.20;93.30
33271;DHT22;53180;51.344;6.152;2023-01-19T15:10:53;2.20;93.30
33271;DHT22;53180;51.344;6.152;2023-01-19T15:13:44;2.10;93.30
33271;DHT22;53180;51.344;6.152;2023-01-19T15:16:33;2.10;93.30
33271;DHT22;53180;51.344;6.152;2023-01-19T15:19:22;1.90;93.20
33271;DHT22;53180;51.344;6.152;2023-01-19T15:22:11;1.90;93.30
33271;DHT22;53180;51.344;6.152;2023-01-19T15:25:00;1.90;93.40
33271;DHT22;53180;51.344;6.152;2023-01-19T15:27:49;1.90;93.60
33271;DHT22;53180;51.344;6.152;2023-01-19T15:30:39;1.80;93.70
33271;DHT22;53180;51.344;6.152;2023-01-19T15:33:29;1.80;93.80
33271;DHT22;53180;51.344;6.152;2023-01-19T15:36:19;1.80;93.80
33271;DHT22;53180;51.344;6.152;2023-01-19T15:39:10;1.80;93.90
33271;DHT22;53180;51.344;6.152;2023-01-19T15:41:59;1.90;93.80
33271;DHT22;53180;51.344;6.152;2023-01-19T15:44:48;1.80;93.70
33271;DHT22;53180;51.344;6.152;2023-01-19T15:47:38;1.80;93.70
33271;DHT22;53180;51.344;6.152;2023-01-19T15:50:26;1.80;93.80
33271;DHT22;53180;51.344;6.152;2023-01-19T15:53:16;1.70;93.80
33271;DHT22;53180;51.344;6.152;2023-01-19T15:56:12;1.70;93.80
33271;DHT22;53180;51.344;6.152;2023-01-19T15:59:03;1.80;93.90
33271;DHT22;53180;51.344;6.152;2023-01-19T16:01:51;1.70;94.00
33271;DHT22;53180;51.344;6.152;2023-01-19T16:04:42;1.70;94.00
33271;DHT22;53180;51.344;6.152;2023-01-19T16:07:32;1.70;94.00
33271;DHT22;53180;51.344;6.152;2023-01-19T16:10:22;1.70;94.00
33271;DHT22;53180;51.344;6.152;2023-01-19T16:13:11;1.70;94.10
33271;DHT22;53180;51.344;6.152;2023-01-19T16:16:03;1.70;94.10
33271;DHT22;53180;51.344;6.152;2023-01-19T16:18:52;1.70;94.10
33271;DHT22;53180;51.344;6.152;2023-01-19T16:21:43;1.60;94.20
33271;DHT22;53180;51.344;6.152;2023-01-19T16:24:32;1.60;94.20
33271;DHT22;53180;51.344;6.152;2023-01-19T16:27:21;1.70;94.30
33271;DHT22;53180;51.344;6.152;2023-01-19T16:30:10;1.60;94.30
33271;DHT22;53180;51.344;6.152;2023-01-19T16:33:02;1.70;94.40
33271;DHT22;53180;51.344;6.152;2023-01-19T16:35:52;1.70;94.40
33271;DHT22;53180;51.344;6.152;2023-01-19T16:38:42;1.60;94.40
33271;DHT22;53180;51.344;6.152;2023-01-19T16:41:31;1.70;94.40
33271;DHT22;53180;51.344;6.152;2023-01-19T16:44:21;1.70;94.50
33271;DHT22;53180;51.344;6.152;2023-01-19T16:47:09;1.60;94.50
33271;DHT22;53180;51.344;6.152;2023-01-19T16:49:58;1.60;94.50
33271;DHT22;53180;51.344;6.152;2023-01-19T16:52:47;1.60;94.50
33271;DHT22;53180;51.344;6.152;2023-01-19T16:55:41;1.50;94.50
33271;DHT22;53180;51.344;6.152;2023-01-19T16:58:30;1.50;94.50
33271;DHT22;53180;51.344;6.152;2023-01-19T17:01:19;1.40;94.50
33271;DHT22;53180;51.344;6.152;2023-01-19T17:03:49;1.40;94.50
33271;DHT22;53180;51.344;6.152;2023-01-19T17:06:20;1.40;94.40
33271;DHT22;53180;51.344;6.152;2023-01-19T17:08:51;1.30;94.40
33271;DHT22;53180;51.344;6.152;2023-01-19T17:11:40;1.30;94.40
33271;DHT22;53180;51.344;6.152;2023-01-19T17:14:49;1.30;94.40
33271;DHT22;53180;51.344;6.152;2023-01-19T17:17:38;1.20;94.50
33271;DHT22;53180;51.344;6.152;2023-01-19T17:20:16;1.20;94.50
33271;DHT22;53180;51.344;6.152;2023-01-19T17:23:03;1.20;94.50
33271;DHT22;53180;51.344;6.152;2023-01-19T17:25:51;1.20;94.60
33271;DHT22;53180;51.344;6.152;2023-01-19T17:28:42;1.20;94.60
33271;DHT22;53180;51.344;6.152;2023-01-19T17:31:32;1.10;94.60
33271;DHT22;53180;51.344;6.152;2023-01-19T17:34:01;1.10;94.60
33271;DHT22;53180;51.344;6.152;2023-01-19T17:36:30;1.10;94.60
33271;DHT22;53180;51.344;6.152;2023-01-19T17:39:18;1.10;94.60
33271;DHT22;53180;51.344;6.152;2023-01-19T17:41:46;1.00;94.60
33271;DHT22;53180;51.344;6.152;2023-01-19T17:44:17;1.00;94.60
33271;DHT22;53180;51.344;6.152;2023-01-19T17:46:46;0.90;94.60
33271;DHT22;53180;51.344;6.152;2023-01-19T17:49:14;0.90;94.60
33271;DHT22;53180;51.344;6.152;2023-01-19T17:51:42;0.90;94.70
33271;DHT22;53180;51.344;6.152;2023-01-19T17:54:11;0.90;94.70
33271;DHT22;53180;51.344;6.152;2023-01-19T17:56:40;0.90;94.70
33271;DHT22;53180;51.344;6.152;2023-01-19T17:59:10;0.90;94.80
33271;DHT22;53180;51.344;6.152;2023-01-19T18:01:40;0.90;94.80
33271;DHT22;53180;51.344;6.152;2023-01-19T18:04:10;0.90;94.80
33271;DHT22;53180;51.344;6.152;2023-01-19T18:06:38;1.00;94.80
33271;DHT22;53180;51.344;6.152;2023-01-19T18:09:06;0.90;94.80
33271;DHT22;53180;51.344;6.152;2023-01-19T18:11:34;0.90;94.80
33271;DHT22;53180;51.344;6.152;2023-01-19T18:14:03;0.90;94.80
33271;DHT22;53180;51.344;6.152;2023-01-19T18:16:32;0.90;94.80
33271;DHT22;53180;51.344;6.152;2023-01-19T18:19:01;0.90;94.90
33271;DHT22;53180;51.344;6.152;2023-01-19T18:21:30;0.90;94.90
33271;DHT22;53180;51.344;6.152;2023-01-19T18:23:58;0.80;94.90